Terminal Aerodrome Forecast
Issued by NWS Blacksburg, VA

Current Version | Previous Version | Text Only | Print | Product List | Glossary Off
Versions: 1 2 3 4 5 6 7 8 9 10 11 12 13 14 15 16 17 18 19 20 21 22 23 24 25 26

000
FTUS41 KRNK 241120
TAFBLF
TAF
KBLF 241120Z 2412/2512 13006KT P6SM OVC003
     FM241500 14007KT 6SM -SHRA BR SCT004 OVC009
     FM241900 16006KT 4SM SHRA BR VCTS SCT008 OVC015CB
     FM250000 17010KT 6SM -SHRA BKN040
     FM250600 25007KT P6SM OVC005=

USA.gov is the U.S. government's official web portal to all federal, state and local government web resources and services.